sensor_id;sensor_type;location;lat;lon;timestamp;temperature;humidity
8261;DHT22;64115;50.170;8.242;2023-01-05T00:01:00;9.60;99.90
8261;DHT22;64115;50.170;8.242;2023-01-05T00:03:28;9.50;99.90
8261;DHT22;64115;50.170;8.242;2023-01-05T00:05:58;9.50;99.90
8261;DHT22;64115;50.170;8.242;2023-01-05T00:08:25;9.60;99.90
8261;DHT22;64115;50.170;8.242;2023-01-05T00:10:54;9.60;99.90
8261;DHT22;64115;50.170;8.242;2023-01-05T00:13:35;9.60;99.90
8261;DHT22;64115;50.170;8.242;2023-01-05T00:16:19;9.60;99.90
8261;DHT22;64115;50.170;8.242;2023-01-05T00:19:03;9.60;99.90
8261;DHT22;64115;50.170;8.242;2023-01-05T00:21:47;9.60;99.90
8261;DHT22;64115;50.170;8.242;2023-01-05T00:24:32;9.50;99.90
8261;DHT22;64115;50.170;8.242;2023-01-05T00:27:00;9.60;99.90
8261;DHT22;64115;50.170;8.242;2023-01-05T00:29:27;9.60;99.90
8261;DHT22;64115;50.170;8.242;2023-01-05T00:31:54;9.60;99.90
8261;DHT22;64115;50.170;8.242;2023-01-05T00:34:21;9.60;99.90
8261;DHT22;64115;50.170;8.242;2023-01-05T00:36:48;9.60;99.90
8261;DHT22;64115;50.170;8.242;2023-01-05T00:39:15;9.60;99.90
8261;DHT22;64115;50.170;8.242;2023-01-05T00:41:42;9.60;99.90
8261;DHT22;64115;50.170;8.242;2023-01-05T00:44:11;9.60;99.90
8261;DHT22;64115;50.170;8.242;2023-01-05T00:46:38;9.60;99.90
8261;DHT22;64115;50.170;8.242;2023-01-05T00:49:05;9.60;99.90
8261;DHT22;64115;50.170;8.242;2023-01-05T00:51:32;9.70;99.90
8261;DHT22;64115;50.170;8.242;2023-01-05T00:53:59;9.70;99.90
8261;DHT22;64115;50.170;8.242;2023-01-05T00:56:26;9.70;99.90
8261;DHT22;64115;50.170;8.242;2023-01-05T00:58:53;9.70;99.90
8261;DHT22;64115;50.170;8.242;2023-01-05T01:01:22;9.70;99.90
8261;DHT22;64115;50.170;8.242;2023-01-05T01:03:49;9.70;99.90
8261;DHT22;64115;50.170;8.242;2023-01-05T01:06:16;9.70;99.90
8261;DHT22;64115;50.170;8.242;2023-01-05T01:08:44;9.70;99.90
8261;DHT22;64115;50.170;8.242;2023-01-05T01:11:11;9.70;99.90
8261;DHT22;64115;50.170;8.242;2023-01-05T01:13:41;9.70;99.90
8261;DHT22;64115;50.170;8.242;2023-01-05T01:16:08;9.70;99.90
8261;DHT22;64115;50.170;8.242;2023-01-05T01:18:37;9.70;99.90
8261;DHT22;64115;50.170;8.242;2023-01-05T01:27:48;9.60;99.90
8261;DHT22;64115;50.170;8.242;2023-01-05T01:30:15;9.60;99.90
8261;DHT22;64115;50.170;8.242;2023-01-05T01:32:42;9.50;99.90
8261;DHT22;64115;50.170;8.242;2023-01-05T01:35:11;9.50;99.90
8261;DHT22;64115;50.170;8.242;2023-01-05T01:37:38;9.40;99.90
8261;DHT22;64115;50.170;8.242;2023-01-05T01:40:07;9.40;99.90
8261;DHT22;64115;50.170;8.242;2023-01-05T01:42:34;9.40;99.90
8261;DHT22;64115;50.170;8.242;2023-01-05T01:45:11;9.40;99.90
8261;DHT22;64115;50.170;8.242;2023-01-05T01:47:44;9.30;99.90
8261;DHT22;64115;50.170;8.242;2023-01-05T01:50:17;9.40;99.90
8261;DHT22;64115;50.170;8.242;2023-01-05T01:52:48;9.40;99.90
8261;DHT22;64115;50.170;8.242;2023-01-05T01:55:16;9.30;99.90
8261;DHT22;64115;50.170;8.242;2023-01-05T01:57:44;9.30;99.90
8261;DHT22;64115;50.170;8.242;2023-01-05T02:00:13;9.30;99.90
8261;DHT22;64115;50.170;8.242;2023-01-05T02:02:40;9.30;99.90
8261;DHT22;64115;50.170;8.242;2023-01-05T02:05:10;9.30;99.90
8261;DHT22;64115;50.170;8.242;2023-01-05T02:07:44;9.30;99.90
8261;DHT22;64115;50.170;8.242;2023-01-05T02:10:12;9.30;99.90
8261;DHT22;64115;50.170;8.242;2023-01-05T02:12:53;9.20;99.90
8261;DHT22;64115;50.170;8.242;2023-01-05T02:15:34;9.20;99.90
8261;DHT22;64115;50.170;8.242;2023-01-05T02:18:13;9.20;99.90
8261;DHT22;64115;50.170;8.242;2023-01-05T02:20:58;9.20;99.90
8261;DHT22;64115;50.170;8.242;2023-01-05T02:26:53;9.00;99.90
8261;DHT22;64115;50.170;8.242;2023-01-05T02:29:47;9.00;99.90
8261;DHT22;64115;50.170;8.242;2023-01-05T02:32:21;9.00;99.90
8261;DHT22;64115;50.170;8.242;2023-01-05T02:34:56;9.00;99.90
8261;DHT22;64115;50.170;8.242;2023-01-05T02:37:34;9.00;99.90
8261;DHT22;64115;50.170;8.242;2023-01-05T02:40:05;9.00;99.90
8261;DHT22;64115;50.170;8.242;2023-01-05T02:42:35;8.90;99.90
8261;DHT22;64115;50.170;8.242;2023-01-05T02:45:06;8.90;99.90
8261;DHT22;64115;50.170;8.242;2023-01-05T02:47:40;8.90;99.90
8261;DHT22;64115;50.170;8.242;2023-01-05T02:50:11;8.90;99.90
8261;DHT22;64115;50.170;8.242;2023-01-05T02:52:44;8.90;99.90
8261;DHT22;64115;50.170;8.242;2023-01-05T02:55:15;8.80;99.90
8261;DHT22;64115;50.170;8.242;2023-01-05T02:57:47;8.80;99.90
8261;DHT22;64115;50.170;8.242;2023-01-05T03:00:19;8.80;99.90
8261;DHT22;64115;50.170;8.242;2023-01-05T03:02:54;8.70;99.90
8261;DHT22;64115;50.170;8.242;2023-01-05T03:05:25;8.70;99.90
8261;DHT22;64115;50.170;8.242;2023-01-05T03:07:55;8.70;99.90
8261;DHT22;64115;50.170;8.242;2023-01-05T03:10:35;8.80;99.90
8261;DHT22;64115;50.170;8.242;2023-01-05T03:13:21;8.70;99.90
8261;DHT22;64115;50.170;8.242;2023-01-05T03:16:08;8.70;99.90
8261;DHT22;64115;50.170;8.242;2023-01-05T03:18:38;8.70;99.90
8261;DHT22;64115;50.170;8.242;2023-01-05T03:21:20;8.60;99.90
8261;DHT22;64115;50.170;8.242;2023-01-05T03:23:48;8.60;99.90
8261;DHT22;64115;50.170;8.242;2023-01-05T03:26:34;8.60;99.90
8261;DHT22;64115;50.170;8.242;2023-01-05T03:29:18;8.60;99.90
8261;DHT22;64115;50.170;8.242;2023-01-05T03:32:06;8.60;99.90
8261;DHT22;64115;50.170;8.242;2023-01-05T03:34:57;8.60;99.90
8261;DHT22;64115;50.170;8.242;2023-01-05T03:37:46;8.50;99.90
8261;DHT22;64115;50.170;8.242;2023-01-05T03:40:29;8.50;99.90
8261;DHT22;64115;50.170;8.242;2023-01-05T03:42:58;8.40;99.90
8261;DHT22;64115;50.170;8.242;2023-01-05T03:45:30;8.50;99.90
8261;DHT22;64115;50.170;8.242;2023-01-05T03:47:58;8.50;99.90
8261;DHT22;64115;50.170;8.242;2023-01-05T03:50:26;8.50;99.90
8261;DHT22;64115;50.170;8.242;2023-01-05T03:52:54;8.50;99.90
8261;DHT22;64115;50.170;8.242;2023-01-05T03:55:21;8.50;99.90
8261;DHT22;64115;50.170;8.242;2023-01-05T03:57:48;8.50;99.90
8261;DHT22;64115;50.170;8.242;2023-01-05T04:00:15;8.40;99.90
8261;DHT22;64115;50.170;8.242;2023-01-05T04:02:42;8.40;99.90
8261;DHT22;64115;50.170;8.242;2023-01-05T04:05:09;8.30;99.90
8261;DHT22;64115;50.170;8.242;2023-01-05T04:07:37;8.30;99.90
8261;DHT22;64115;50.170;8.242;2023-01-05T04:10:05;8.30;99.90
8261;DHT22;64115;50.170;8.242;2023-01-05T04:12:32;8.30;99.90
8261;DHT22;64115;50.170;8.242;2023-01-05T04:14:59;8.30;99.90
8261;DHT22;64115;50.170;8.242;2023-01-05T04:17:26;8.30;99.90
8261;DHT22;64115;50.170;8.242;2023-01-05T04:19:53;8.30;99.90
8261;DHT22;64115;50.170;8.242;2023-01-05T04:22:19;8.30;99.90
8261;DHT22;64115;50.170;8.242;2023-01-05T04:24:48;8.30;99.90
8261;DHT22;64115;50.170;8.242;2023-01-05T04:27:15;8.30;99.90
8261;DHT22;64115;50.170;8.242;2023-01-05T04:29:42;8.30;99.90
8261;DHT22;64115;50.170;8.242;2023-01-05T04:32:09;8.30;99.90
8261;DHT22;64115;50.170;8.242;2023-01-05T04:34:36;8.30;99.90
8261;DHT22;64115;50.170;8.242;2023-01-05T04:37:03;8.20;99.90
8261;DHT22;64115;50.170;8.242;2023-01-05T04:39:30;8.30;99.90
8261;DHT22;64115;50.170;8.242;2023-01-05T04:41:58;8.30;99.90
8261;DHT22;64115;50.170;8.242;2023-01-05T04:44:25;8.30;99.90
8261;DHT22;64115;50.170;8.242;2023-01-05T04:46:52;8.20;99.90
8261;DHT22;64115;50.170;8.242;2023-01-05T04:49:19;8.20;99.90
8261;DHT22;64115;50.170;8.242;2023-01-05T04:51:46;8.20;99.90
8261;DHT22;64115;50.170;8.242;2023-01-05T04:54:13;8.20;99.90
8261;DHT22;64115;50.170;8.242;2023-01-05T04:56:40;8.20;99.90
8261;DHT22;64115;50.170;8.242;2023-01-05T04:59:08;8.20;99.90
8261;DHT22;64115;50.170;8.242;2023-01-05T05:01:35;8.10;99.90
8261;DHT22;64115;50.170;8.242;2023-01-05T05:04:02;8.10;99.90
8261;DHT22;64115;50.170;8.242;2023-01-05T05:06:29;8.10;99.90
8261;DHT22;64115;50.170;8.242;2023-01-05T05:08:56;8.10;99.90
8261;DHT22;64115;50.170;8.242;2023-01-05T05:11:23;8.10;99.90
8261;DHT22;64115;50.170;8.242;2023-01-05T05:13:50;8.10;99.90
8261;DHT22;64115;50.170;8.242;2023-01-05T05:16:19;8.10;99.90
8261;DHT22;64115;50.170;8.242;2023-01-05T05:18:47;8.10;99.90
8261;DHT22;64115;50.170;8.242;2023-01-05T05:21:14;8.10;99.90
8261;DHT22;64115;50.170;8.242;2023-01-05T05:23:41;8.00;99.90
8261;DHT22;64115;50.170;8.242;2023-01-05T05:26:08;8.10;99.90
8261;DHT22;64115;50.170;8.242;2023-01-05T05:28:35;8.00;99.90
8261;DHT22;64115;50.170;8.242;2023-01-05T05:31:02;8.10;99.90
8261;DHT22;64115;50.170;8.242;2023-01-05T05:33:30;8.00;99.90
8261;DHT22;64115;50.170;8.242;2023-01-05T05:35:57;8.00;99.90
8261;DHT22;64115;50.170;8.242;2023-01-05T05:38:24;8.00;99.90
8261;DHT22;64115;50.170;8.242;2023-01-05T05:40:51;8.00;99.90
8261;DHT22;64115;50.170;8.242;2023-01-05T05:43:18;8.00;99.90
8261;DHT22;64115;50.170;8.242;2023-01-05T05:45:45;8.00;99.90
8261;DHT22;64115;50.170;8.242;2023-01-05T05:48:12;8.00;99.90
8261;DHT22;64115;50.170;8.242;2023-01-05T05:50:41;7.90;99.90
8261;DHT22;64115;50.170;8.242;2023-01-05T05:53:09;7.90;99.90
8261;DHT22;64115;50.170;8.242;2023-01-05T05:55:36;7.90;99.90
8261;DHT22;64115;50.170;8.242;2023-01-05T05:58:03;8.00;99.90
8261;DHT22;64115;50.170;8.242;2023-01-05T06:00:31;7.90;99.90
8261;DHT22;64115;50.170;8.242;2023-01-05T06:02:58;7.90;99.90
8261;DHT22;64115;50.170;8.242;2023-01-05T06:05:25;7.90;99.90
8261;DHT22;64115;50.170;8.242;2023-01-05T06:07:54;7.90;99.90
8261;DHT22;64115;50.170;8.242;2023-01-05T06:10:21;7.90;99.90
8261;DHT22;64115;50.170;8.242;2023-01-05T06:12:48;7.80;99.90
8261;DHT22;64115;50.170;8.242;2023-01-05T06:15:15;7.80;99.90
8261;DHT22;64115;50.170;8.242;2023-01-05T06:17:42;7.80;99.90
8261;DHT22;64115;50.170;8.242;2023-01-05T06:20:09;7.80;99.90
8261;DHT22;64115;50.170;8.242;2023-01-05T06:22:36;7.80;99.90
8261;DHT22;64115;50.170;8.242;2023-01-05T06:25:05;7.80;99.90
8261;DHT22;64115;50.170;8.242;2023-01-05T06:27:32;7.70;99.90
8261;DHT22;64115;50.170;8.242;2023-01-05T06:29:59;7.70;99.90
8261;DHT22;64115;50.170;8.242;2023-01-05T06:32:26;7.70;99.90
8261;DHT22;64115;50.170;8.242;2023-01-05T06:34:53;7.60;99.90
8261;DHT22;64115;50.170;8.242;2023-01-05T06:37:20;7.60;99.90
8261;DHT22;64115;50.170;8.242;2023-01-05T06:39:48;7.60;99.90
8261;DHT22;64115;50.170;8.242;2023-01-05T06:42:16;7.50;99.90
8261;DHT22;64115;50.170;8.242;2023-01-05T06:44:43;7.60;99.90
8261;DHT22;64115;50.170;8.242;2023-01-05T06:47:10;7.60;99.90
8261;DHT22;64115;50.170;8.242;2023-01-05T06:49:38;7.60;99.90
8261;DHT22;64115;50.170;8.242;2023-01-05T06:52:04;7.60;99.90
8261;DHT22;64115;50.170;8.242;2023-01-05T06:54:32;7.60;99.90
8261;DHT22;64115;50.170;8.242;2023-01-05T06:56:59;7.60;99.90
8261;DHT22;64115;50.170;8.242;2023-01-05T06:59:27;7.60;99.90
8261;DHT22;64115;50.170;8.242;2023-01-05T07:01:54;7.60;99.90
8261;DHT22;64115;50.170;8.242;2023-01-05T07:04:21;7.60;99.90
8261;DHT22;64115;50.170;8.242;2023-01-05T07:06:48;7.60;99.90
8261;DHT22;64115;50.170;8.242;2023-01-05T07:09:15;7.60;99.90
8261;DHT22;64115;50.170;8.242;2023-01-05T07:11:42;7.60;99.90
8261;DHT22;64115;50.170;8.242;2023-01-05T07:14:09;7.60;99.90
8261;DHT22;64115;50.170;8.242;2023-01-05T07:16:38;7.60;99.90
8261;DHT22;64115;50.170;8.242;2023-01-05T07:19:05;7.60;99.90
8261;DHT22;64115;50.170;8.242;2023-01-05T07:21:32;7.60;99.90
8261;DHT22;64115;50.170;8.242;2023-01-05T07:24:00;7.60;99.90
8261;DHT22;64115;50.170;8.242;2023-01-05T07:26:27;7.60;99.90
8261;DHT22;64115;50.170;8.242;2023-01-05T07:28:55;7.60;99.90
8261;DHT22;64115;50.170;8.242;2023-01-05T07:31:23;7.60;99.90
8261;DHT22;64115;50.170;8.242;2023-01-05T07:33:51;7.60;99.90
8261;DHT22;64115;50.170;8.242;2023-01-05T07:36:18;7.60;99.90
8261;DHT22;64115;50.170;8.242;2023-01-05T07:38:45;7.60;99.90
8261;DHT22;64115;50.170;8.242;2023-01-05T07:41:12;7.60;99.90
8261;DHT22;64115;50.170;8.242;2023-01-05T07:43:39;7.60;99.90
8261;DHT22;64115;50.170;8.242;2023-01-05T07:46:06;7.60;99.90
8261;DHT22;64115;50.170;8.242;2023-01-05T07:48:33;7.60;99.90
8261;DHT22;64115;50.170;8.242;2023-01-05T07:51:02;7.60;99.90
8261;DHT22;64115;50.170;8.242;2023-01-05T07:53:31;7.60;99.90
8261;DHT22;64115;50.170;8.242;2023-01-05T07:56:00;7.60;99.90
8261;DHT22;64115;50.170;8.242;2023-01-05T07:58:28;7.60;99.90
8261;DHT22;64115;50.170;8.242;2023-01-05T08:00:55;7.60;99.90
8261;DHT22;64115;50.170;8.242;2023-01-05T08:03:22;7.70;99.90
8261;DHT22;64115;50.170;8.242;2023-01-05T08:05:49;7.70;99.90
8261;DHT22;64115;50.170;8.242;2023-01-05T08:08:18;7.70;99.90
8261;DHT22;64115;50.170;8.242;2023-01-05T08:10:45;7.70;99.90
8261;DHT22;64115;50.170;8.242;2023-01-05T08:13:12;7.80;99.90
8261;DHT22;64115;50.170;8.242;2023-01-05T08:15:56;7.70;99.90
8261;DHT22;64115;50.170;8.242;2023-01-05T08:18:25;7.80;99.90
8261;DHT22;64115;50.170;8.242;2023-01-05T08:20:54;7.80;99.90
8261;DHT22;64115;50.170;8.242;2023-01-05T08:23:23;7.70;99.90
8261;DHT22;64115;50.170;8.242;2023-01-05T08:25:51;7.80;99.90
8261;DHT22;64115;50.170;8.242;2023-01-05T08:28:18;7.70;99.90
8261;DHT22;64115;50.170;8.242;2023-01-05T08:30:45;7.80;99.90
8261;DHT22;64115;50.170;8.242;2023-01-05T08:33:13;7.80;99.90
8261;DHT22;64115;50.170;8.242;2023-01-05T08:35:40;7.80;99.90
8261;DHT22;64115;50.170;8.242;2023-01-05T08:38:09;7.80;99.90
8261;DHT22;64115;50.170;8.242;2023-01-05T08:40:38;7.80;99.90
8261;DHT22;64115;50.170;8.242;2023-01-05T08:43:05;7.80;99.90
8261;DHT22;64115;50.170;8.242;2023-01-05T08:45:33;7.80;99.90
8261;DHT22;64115;50.170;8.242;2023-01-05T08:48:00;7.80;99.90
8261;DHT22;64115;50.170;8.242;2023-01-05T08:50:28;7.80;99.90
8261;DHT22;64115;50.170;8.242;2023-01-05T08:52:55;7.90;99.90
8261;DHT22;64115;50.170;8.242;2023-01-05T08:55:22;8.00;99.90
8261;DHT22;64115;50.170;8.242;2023-01-05T08:57:50;8.00;99.90
8261;DHT22;64115;50.170;8.242;2023-01-05T09:00:18;8.10;99.90
8261;DHT22;64115;50.170;8.242;2023-01-05T09:02:46;8.10;99.90
8261;DHT22;64115;50.170;8.242;2023-01-05T09:05:13;8.10;99.90
8261;DHT22;64115;50.170;8.242;2023-01-05T09:07:41;8.10;99.90
8261;DHT22;64115;50.170;8.242;2023-01-05T09:10:09;8.10;99.90
8261;DHT22;64115;50.170;8.242;2023-01-05T09:12:37;8.10;99.90
8261;DHT22;64115;50.170;8.242;2023-01-05T09:15:07;8.10;99.90
8261;DHT22;64115;50.170;8.242;2023-01-05T09:17:34;8.10;99.90
8261;DHT22;64115;50.170;8.242;2023-01-05T09:20:03;8.10;99.90
8261;DHT22;64115;50.170;8.242;2023-01-05T09:22:32;8.10;99.90
8261;DHT22;64115;50.170;8.242;2023-01-05T09:25:00;8.30;99.90
8261;DHT22;64115;50.170;8.242;2023-01-05T09:27:27;8.30;99.90
8261;DHT22;64115;50.170;8.242;2023-01-05T09:29:54;8.30;99.90
8261;DHT22;64115;50.170;8.242;2023-01-05T09:32:23;8.40;99.90
8261;DHT22;64115;50.170;8.242;2023-01-05T09:34:49;8.30;99.90
8261;DHT22;64115;50.170;8.242;2023-01-05T09:37:16;8.20;99.90
8261;DHT22;64115;50.170;8.242;2023-01-05T09:39:43;8.20;99.90
8261;DHT22;64115;50.170;8.242;2023-01-05T09:42:13;8.30;99.90
8261;DHT22;64115;50.170;8.242;2023-01-05T09:44:43;8.30;99.90
8261;DHT22;64115;50.170;8.242;2023-01-05T09:47:15;8.30;99.90
8261;DHT22;64115;50.170;8.242;2023-01-05T09:49:47;8.40;99.90
8261;DHT22;64115;50.170;8.242;2023-01-05T09:52:16;8.40;99.90
8261;DHT22;64115;50.170;8.242;2023-01-05T09:54:44;8.50;99.90
8261;DHT22;64115;50.170;8.242;2023-01-05T09:57:15;8.50;99.90
8261;DHT22;64115;50.170;8.242;2023-01-05T09:59:45;8.60;99.90
8261;DHT22;64115;50.170;8.242;2023-01-05T10:02:17;8.60;99.90
8261;DHT22;64115;50.170;8.242;2023-01-05T10:04:48;8.70;99.90
8261;DHT22;64115;50.170;8.242;2023-01-05T10:07:21;8.70;99.90
8261;DHT22;64115;50.170;8.242;2023-01-05T10:09:50;8.60;99.90
8261;DHT22;64115;50.170;8.242;2023-01-05T10:12:23;8.70;99.90
8261;DHT22;64115;50.170;8.242;2023-01-05T10:15:12;8.70;99.90
8261;DHT22;64115;50.170;8.242;2023-01-05T10:17:42;8.70;99.90
8261;DHT22;64115;50.170;8.242;2023-01-05T10:20:16;8.70;99.90
8261;DHT22;64115;50.170;8.242;2023-01-05T10:22:52;8.70;99.90
8261;DHT22;64115;50.170;8.242;2023-01-05T10:25:33;8.70;99.90
8261;DHT22;64115;50.170;8.242;2023-01-05T10:28:25;8.70;99.90
8261;DHT22;64115;50.170;8.242;2023-01-05T10:30:57;8.70;99.90
8261;DHT22;64115;50.170;8.242;2023-01-05T10:33:45;8.70;99.90
8261;DHT22;64115;50.170;8.242;2023-01-05T10:36:28;8.70;99.90
8261;DHT22;64115;50.170;8.242;2023-01-05T10:39:03;8.70;99.90
8261;DHT22;64115;50.170;8.242;2023-01-05T10:41:40;8.70;99.90
8261;DHT22;64115;50.170;8.242;2023-01-05T10:44:38;8.80;99.90
8261;DHT22;64115;50.170;8.242;2023-01-05T10:47:08;8.90;99.90
8261;DHT22;64115;50.170;8.242;2023-01-05T10:49:36;9.00;99.90
8261;DHT22;64115;50.170;8.242;2023-01-05T10:52:07;9.00;99.90
8261;DHT22;64115;50.170;8.242;2023-01-05T10:54:39;9.00;99.90
8261;DHT22;64115;50.170;8.242;2023-01-05T10:57:34;9.00;99.90
8261;DHT22;64115;50.170;8.242;2023-01-05T11:00:05;9.10;99.90
8261;DHT22;64115;50.170;8.242;2023-01-05T11:02:35;9.20;99.90
8261;DHT22;64115;50.170;8.242;2023-01-05T11:05:05;9.20;99.90
8261;DHT22;64115;50.170;8.242;2023-01-05T11:07:45;9.20;99.90
8261;DHT22;64115;50.170;8.242;2023-01-05T11:10:27;9.10;99.90
8261;DHT22;64115;50.170;8.242;2023-01-05T11:13:00;9.10;99.90
8261;DHT22;64115;50.170;8.242;2023-01-05T11:15:29;9.10;99.90
8261;DHT22;64115;50.170;8.242;2023-01-05T11:17:57;9.10;99.90
8261;DHT22;64115;50.170;8.242;2023-01-05T11:20:26;9.00;99.90
8261;DHT22;64115;50.170;8.242;2023-01-05T11:22:55;9.00;99.90
8261;DHT22;64115;50.170;8.242;2023-01-05T11:25:27;9.10;99.90
8261;DHT22;64115;50.170;8.242;2023-01-05T11:28:14;9.10;99.90
8261;DHT22;64115;50.170;8.242;2023-01-05T11:30:54;9.10;99.90
8261;DHT22;64115;50.170;8.242;2023-01-05T11:33:25;9.10;99.90
8261;DHT22;64115;50.170;8.242;2023-01-05T11:35:54;9.20;99.90
8261;DHT22;64115;50.170;8.242;2023-01-05T11:38:26;9.10;99.90
8261;DHT22;64115;50.170;8.242;2023-01-05T11:40:54;9.20;99.90
8261;DHT22;64115;50.170;8.242;2023-01-05T11:43:23;9.20;99.90
8261;DHT22;64115;50.170;8.242;2023-01-05T11:45:54;9.30;99.90
8261;DHT22;64115;50.170;8.242;2023-01-05T11:48:23;9.40;99.90
8261;DHT22;64115;50.170;8.242;2023-01-05T11:50:54;9.50;99.90
8261;DHT22;64115;50.170;8.242;2023-01-05T11:53:35;9.50;99.90
8261;DHT22;64115;50.170;8.242;2023-01-05T11:56:03;9.50;99.90
8261;DHT22;64115;50.170;8.242;2023-01-05T11:58:32;9.50;99.90
8261;DHT22;64115;50.170;8.242;2023-01-05T12:01:25;9.50;99.90
8261;DHT22;64115;50.170;8.242;2023-01-05T12:03:59;9.50;99.90
8261;DHT22;64115;50.170;8.242;2023-01-05T12:09:24;9.70;99.90
8261;DHT22;64115;50.170;8.242;2023-01-05T12:12:02;9.80;99.90
8261;DHT22;64115;50.170;8.242;2023-01-05T12:14:50;9.70;99.90
8261;DHT22;64115;50.170;8.242;2023-01-05T12:17:23;9.80;99.90
8261;DHT22;64115;50.170;8.242;2023-01-05T12:20:06;10.00;99.90
8261;DHT22;64115;50.170;8.242;2023-01-05T12:23:05;10.00;99.90
8261;DHT22;64115;50.170;8.242;2023-01-05T12:25:46;9.90;99.90
8261;DHT22;64115;50.170;8.242;2023-01-05T12:28:26;9.80;99.90
8261;DHT22;64115;50.170;8.242;2023-01-05T12:31:00;9.60;99.90
8261;DHT22;64115;50.170;8.242;2023-01-05T12:33:54;9.50;99.90
8261;DHT22;64115;50.170;8.242;2023-01-05T12:36:33;9.40;99.90
8261;DHT22;64115;50.170;8.242;2023-01-05T12:39:34;9.40;99.90
8261;DHT22;64115;50.170;8.242;2023-01-05T12:42:29;9.40;99.90
8261;DHT22;64115;50.170;8.242;2023-01-05T12:45:24;9.50;99.90
8261;DHT22;64115;50.170;8.242;2023-01-05T12:47:56;9.40;99.90
8261;DHT22;64115;50.170;8.242;2023-01-05T12:50:30;9.50;99.90
8261;DHT22;64115;50.170;8.242;2023-01-05T12:53:04;9.50;99.90
8261;DHT22;64115;50.170;8.242;2023-01-05T12:55:38;9.50;99.90
8261;DHT22;64115;50.170;8.242;2023-01-05T12:58:12;9.60;99.90
8261;DHT22;64115;50.170;8.242;2023-01-05T13:00:40;9.70;99.90
8261;DHT22;64115;50.170;8.242;2023-01-05T13:03:18;9.70;99.90
8261;DHT22;64115;50.170;8.242;2023-01-05T13:05:54;9.80;99.90
8261;DHT22;64115;50.170;8.242;2023-01-05T13:08:25;9.80;99.90
8261;DHT22;64115;50.170;8.242;2023-01-05T13:10:58;9.80;99.90
8261;DHT22;64115;50.170;8.242;2023-01-05T13:13:31;9.80;99.90
8261;DHT22;64115;50.170;8.242;2023-01-05T13:16:04;9.80;99.90
8261;DHT22;64115;50.170;8.242;2023-01-05T13:18:38;9.90;99.90
8261;DHT22;64115;50.170;8.242;2023-01-05T13:21:07;10.00;99.90
8261;DHT22;64115;50.170;8.242;2023-01-05T13:23:38;10.00;99.90
8261;DHT22;64115;50.170;8.242;2023-01-05T13:26:10;10.00;99.90
8261;DHT22;64115;50.170;8.242;2023-01-05T13:28:40;10.10;99.90
8261;DHT22;64115;50.170;8.242;2023-01-05T13:31:24;10.10;99.90
8261;DHT22;64115;50.170;8.242;2023-01-05T13:34:19;10.00;99.90
8261;DHT22;64115;50.170;8.242;2023-01-05T13:37:17;10.00;99.90
8261;DHT22;64115;50.170;8.242;2023-01-05T13:46:03;9.90;99.90
8261;DHT22;64115;50.170;8.242;2023-01-05T13:51:45;9.80;99.90
8261;DHT22;64115;50.170;8.242;2023-01-05T13:54:18;9.80;99.90
8261;DHT22;64115;50.170;8.242;2023-01-05T13:56:47;9.60;99.90
8261;DHT22;64115;50.170;8.242;2023-01-05T13:59:25;9.40;99.90
8261;DHT22;64115;50.170;8.242;2023-01-05T14:01:56;9.30;99.90
8261;DHT22;64115;50.170;8.242;2023-01-05T14:04:27;9.20;99.90
8261;DHT22;64115;50.170;8.242;2023-01-05T14:06:57;9.10;99.90
8261;DHT22;64115;50.170;8.242;2023-01-05T14:09:28;9.10;99.90
8261;DHT22;64115;50.170;8.242;2023-01-05T14:15:03;9.00;99.90
8261;DHT22;64115;50.170;8.242;2023-01-05T14:17:54;8.90;99.90
8261;DHT22;64115;50.170;8.242;2023-01-05T14:20:36;8.90;99.90
8261;DHT22;64115;50.170;8.242;2023-01-05T14:26:06;8.90;99.90
8261;DHT22;64115;50.170;8.242;2023-01-05T14:28:51;8.90;99.90
8261;DHT22;64115;50.170;8.242;2023-01-05T14:31:35;8.90;99.90
8261;DHT22;64115;50.170;8.242;2023-01-05T14:34:11;9.00;99.90
8261;DHT22;64115;50.170;8.242;2023-01-05T14:36:40;9.00;99.90
8261;DHT22;64115;50.170;8.242;2023-01-05T14:39:27;8.90;99.90
8261;DHT22;64115;50.170;8.242;2023-01-05T14:42:02;8.90;99.90
8261;DHT22;64115;50.170;8.242;2023-01-05T14:44:34;8.80;99.90
8261;DHT22;64115;50.170;8.242;2023-01-05T14:47:03;8.80;99.90
8261;DHT22;64115;50.170;8.242;2023-01-05T14:49:35;8.80;99.90
8261;DHT22;64115;50.170;8.242;2023-01-05T14:52:04;8.70;99.90
8261;DHT22;64115;50.170;8.242;2023-01-05T14:57:36;8.70;99.90
8261;DHT22;64115;50.170;8.242;2023-01-05T15:00:10;8.60;99.90
8261;DHT22;64115;50.170;8.242;2023-01-05T15:02:46;8.60;99.90
8261;DHT22;64115;50.170;8.242;2023-01-05T15:05:16;8.60;99.90
8261;DHT22;64115;50.170;8.242;2023-01-05T15:07:52;8.60;99.90
8261;DHT22;64115;50.170;8.242;2023-01-05T15:10:37;8.50;99.90
8261;DHT22;64115;50.170;8.242;2023-01-05T15:13:24;8.50;99.90
8261;DHT22;64115;50.170;8.242;2023-01-05T15:15:57;8.50;99.90
8261;DHT22;64115;50.170;8.242;2023-01-05T15:19:03;8.50;99.90
8261;DHT22;64115;50.170;8.242;2023-01-05T15:21:58;8.50;99.90
8261;DHT22;64115;50.170;8.242;2023-01-05T15:24:57;8.40;99.90
8261;DHT22;64115;50.170;8.242;2023-01-05T15:27:42;8.40;99.90
8261;DHT22;64115;50.170;8.242;2023-01-05T15:30:27;8.50;99.90
8261;DHT22;64115;50.170;8.242;2023-01-05T15:33:07;8.40;99.90
8261;DHT22;64115;50.170;8.242;2023-01-05T15:35:41;8.40;99.90
8261;DHT22;64115;50.170;8.242;2023-01-05T15:38:20;8.40;99.90
8261;DHT22;64115;50.170;8.242;2023-01-05T15:40:48;8.40;99.90
8261;DHT22;64115;50.170;8.242;2023-01-05T15:43:17;8.40;99.90
8261;DHT22;64115;50.170;8.242;2023-01-05T15:45:48;8.40;99.90
8261;DHT22;64115;50.170;8.242;2023-01-05T15:48:25;8.40;99.90
8261;DHT22;64115;50.170;8.242;2023-01-05T15:50:55;8.30;99.90
8261;DHT22;64115;50.170;8.242;2023-01-05T15:53:27;8.30;99.90
8261;DHT22;64115;50.170;8.242;2023-01-05T15:55:55;8.30;99.90
8261;DHT22;64115;50.170;8.242;2023-01-05T15:58:26;8.30;99.90
8261;DHT22;64115;50.170;8.242;2023-01-05T16:01:02;8.30;99.90
8261;DHT22;64115;50.170;8.242;2023-01-05T16:03:31;8.30;99.90
8261;DHT22;64115;50.170;8.242;2023-01-05T16:06:00;8.20;99.90
8261;DHT22;64115;50.170;8.242;2023-01-05T16:08:30;8.20;99.90
8261;DHT22;64115;50.170;8.242;2023-01-05T16:11:00;8.30;99.90
8261;DHT22;64115;50.170;8.242;2023-01-05T16:13:33;8.30;99.90
8261;DHT22;64115;50.170;8.242;2023-01-05T16:16:02;8.30;99.90
8261;DHT22;64115;50.170;8.242;2023-01-05T16:18:33;8.20;99.90
8261;DHT22;64115;50.170;8.242;2023-01-05T16:21:05;8.30;99.90
8261;DHT22;64115;50.170;8.242;2023-01-05T16:23:39;8.30;99.90
8261;DHT22;64115;50.170;8.242;2023-01-05T16:26:13;8.30;99.90
8261;DHT22;64115;50.170;8.242;2023-01-05T16:28:41;8.20;99.90
8261;DHT22;64115;50.170;8.242;2023-01-05T16:31:13;8.20;99.90
8261;DHT22;64115;50.170;8.242;2023-01-05T16:33:41;8.20;99.90
8261;DHT22;64115;50.170;8.242;2023-01-05T16:36:11;8.20;99.90
8261;DHT22;64115;50.170;8.242;2023-01-05T16:38:44;8.20;99.90
8261;DHT22;64115;50.170;8.242;2023-01-05T16:41:20;8.20;99.90
8261;DHT22;64115;50.170;8.242;2023-01-05T16:43:53;8.20;99.90
8261;DHT22;64115;50.170;8.242;2023-01-05T16:46:35;8.20;99.90
8261;DHT22;64115;50.170;8.242;2023-01-05T16:49:25;8.20;99.90
8261;DHT22;64115;50.170;8.242;2023-01-05T16:51:53;8.10;99.90
8261;DHT22;64115;50.170;8.242;2023-01-05T16:54:23;8.10;99.90
8261;DHT22;64115;50.170;8.242;2023-01-05T16:56:54;8.00;99.90
8261;DHT22;64115;50.170;8.242;2023-01-05T16:59:49;8.00;99.90
8261;DHT22;64115;50.170;8.242;2023-01-05T17:02:33;8.00;99.90
8261;DHT22;64115;50.170;8.242;2023-01-05T17:05:00;8.00;99.90